createdAt,value
2022-12-15T00:00:35.367Z,27.13
2022-12-15T00:03:25.523Z,26.85
2022-12-15T00:06:12.110Z,27.52
2022-12-15T00:08:59.914Z,27.70
2022-12-15T00:11:46.145Z,27.20
2022-12-15T00:14:32.588Z,26.55
2022-12-15T00:17:18.994Z,28.27
2022-12-15T00:20:05.325Z,27.73
2022-12-15T00:22:51.482Z,28.13
2022-12-15T00:25:38.922Z,27.20
2022-12-15T00:28:25.309Z,27.63
2022-12-15T00:31:11.729Z,27.67
2022-12-15T00:33:57.829Z,27.58
2022-12-15T00:36:44.197Z,28.20
2022-12-15T00:39:18.591Z,26.67
2022-12-15T00:41:48.484Z,26.30
2022-12-15T00:44:20.579Z,28.17
2022-12-15T00:46:54.600Z,26.52
2022-12-15T00:49:41.035Z,27.70
2022-12-15T00:52:27.919Z,27.63
2022-12-15T00:55:14.150Z,28.27
2022-12-15T00:58:01.726Z,26.77
2022-12-15T01:00:48.294Z,27.20
2022-12-15T01:03:38.062Z,29.00
2022-12-15T01:06:25.638Z,26.90
2022-12-15T01:09:11.592Z,27.77
2022-12-15T01:11:58.176Z,26.42
2022-12-15T01:14:45.960Z,26.92
2022-12-15T01:17:32.102Z,27.02
2022-12-15T01:20:18.474Z,27.17
2022-12-15T01:22:47.510Z,27.75
2022-12-15T01:25:16.867Z,28.52
2022-12-15T01:27:45.729Z,27.63
2022-12-15T01:30:18.095Z,26.70
2022-12-15T01:32:47.430Z,27.85
2022-12-15T01:35:17.692Z,28.05
2022-12-15T01:37:50.016Z,27.67
2022-12-15T01:40:39.218Z,27.20
2022-12-15T01:43:14.062Z,26.95
2022-12-15T01:45:55.418Z,28.55
2022-12-15T01:48:30.992Z,27.48
2022-12-15T01:51:07.262Z,28.20
2022-12-15T01:53:40.944Z,26.77
2022-12-15T01:56:10.782Z,26.90
2022-12-15T01:58:43.110Z,26.90
2022-12-15T02:01:13.658Z,29.83
2022-12-15T02:03:43.536Z,27.65
2022-12-15T02:06:12.793Z,28.58
2022-12-15T02:08:42.962Z,27.48
2022-12-15T02:11:38.342Z,29.27
2022-12-15T02:14:08.274Z,27.55
2022-12-15T02:16:56.950Z,27.63
2022-12-15T02:19:54.593Z,27.35
2022-12-15T02:22:33.167Z,28.17
2022-12-15T02:25:23.110Z,27.77
2022-12-15T02:28:00.223Z,26.52
2022-12-15T02:30:45.707Z,26.92
2022-12-15T02:35:58.258Z,26.33
2022-12-15T02:38:35.962Z,25.48
2022-12-15T02:41:07.283Z,28.02
2022-12-15T02:43:38.839Z,26.73
2022-12-15T02:46:17.652Z,27.35
2022-12-15T02:48:56.396Z,26.80
2022-12-15T02:51:36.160Z,27.33
2022-12-15T02:54:25.541Z,27.17
2022-12-15T02:57:03.849Z,26.75
2022-12-15T02:59:39.471Z,27.45
2022-12-15T03:02:11.214Z,27.40
2022-12-15T03:04:40.856Z,29.38
2022-12-15T03:07:11.163Z,27.67
2022-12-15T03:09:39.923Z,27.38
2022-12-15T03:12:10.596Z,28.10
2022-12-15T03:14:39.378Z,29.77
2022-12-15T03:17:09.827Z,26.67
2022-12-15T03:19:38.551Z,27.83
2022-12-15T03:22:08.672Z,27.52
2022-12-15T03:24:37.840Z,28.25
2022-12-15T03:27:06.503Z,28.15
2022-12-15T03:29:35.383Z,27.63
2022-12-15T03:32:04.285Z,27.60
2022-12-15T03:34:34.367Z,28.42
2022-12-15T03:37:03.142Z,27.35
2022-12-15T03:39:31.973Z,26.55
2022-12-15T03:42:00.669Z,27.15
2022-12-15T03:44:29.436Z,28.25
2022-12-15T03:47:02.939Z,26.30
2022-12-15T03:49:33.306Z,28.13
2022-12-15T03:52:02.579Z,28.67
2022-12-15T03:54:31.753Z,28.75
2022-12-15T03:57:00.626Z,28.75
2022-12-15T03:59:29.557Z,29.13
2022-12-15T04:01:58.356Z,27.25
2022-12-15T04:04:27.099Z,28.10
2022-12-15T04:06:57.370Z,28.45
2022-12-15T04:09:26.188Z,27.70
2022-12-15T04:11:55.071Z,28.83
2022-12-15T04:14:23.727Z,29.40
2022-12-15T04:16:52.639Z,27.90
2022-12-15T04:19:39.104Z,27.23
2022-12-15T04:22:11.625Z,27.92
2022-12-15T04:25:01.283Z,29.00
2022-12-15T04:27:47.666Z,29.60
2022-12-15T04:30:33.906Z,27.77
2022-12-15T04:33:20.382Z,27.48
2022-12-15T04:36:07.202Z,27.45
2022-12-15T04:38:55.014Z,26.88
2022-12-15T04:41:42.186Z,26.90
2022-12-15T04:44:30.003Z,27.08
2022-12-15T04:47:16.140Z,26.17
2022-12-15T04:50:02.572Z,28.67
2022-12-15T04:52:49.016Z,28.15
2022-12-15T04:55:36.816Z,27.25
2022-12-15T04:58:26.840Z,31.08
2022-12-15T05:01:15.967Z,31.23
2022-12-15T05:04:02.642Z,29.20
2022-12-15T05:06:48.950Z,27.52
2022-12-15T05:09:34.770Z,27.17
2022-12-15T05:12:22.369Z,26.60
2022-12-15T05:15:08.285Z,27.25
2022-12-15T05:17:54.753Z,27.63
2022-12-15T05:20:40.923Z,28.50
2022-12-15T05:23:27.568Z,29.88
2022-12-15T05:26:14.103Z,29.80
2022-12-15T05:29:01.962Z,27.33
2022-12-15T05:31:51.726Z,27.67
2022-12-15T05:34:22.053Z,27.45
2022-12-15T05:36:50.938Z,27.35
2022-12-15T05:39:19.825Z,26.27
2022-12-15T05:41:48.711Z,27.83
2022-12-15T05:44:19.044Z,27.20
2022-12-15T05:46:47.912Z,27.88
2022-12-15T05:49:18.204Z,28.10
2022-12-15T05:51:48.288Z,27.90
2022-12-15T05:54:18.934Z,26.13
2022-12-15T05:56:49.968Z,26.98
2022-12-15T05:59:20.895Z,28.50
2022-12-15T06:01:49.885Z,29.35
2022-12-15T06:04:19.567Z,27.25
2022-12-15T06:06:48.408Z,26.48
2022-12-15T06:09:17.032Z,27.42
2022-12-15T06:11:45.927Z,26.58
2022-12-15T06:14:14.824Z,26.85
2022-12-15T06:16:49.990Z,27.45
2022-12-15T06:19:20.860Z,28.23
2022-12-15T06:21:50.009Z,26.20
2022-12-15T06:24:18.679Z,26.40
2022-12-15T06:26:49.753Z,27.00
2022-12-15T06:29:19.295Z,26.73
2022-12-15T06:31:49.636Z,27.55
2022-12-15T06:34:18.613Z,27.52
2022-12-15T06:36:47.400Z,26.63
2022-12-15T06:39:17.459Z,27.88
2022-12-15T06:41:46.514Z,29.20
2022-12-15T06:44:16.988Z,28.80
2022-12-15T06:46:46.459Z,29.13
2022-12-15T06:49:16.633Z,29.48
2022-12-15T06:51:45.378Z,28.23
2022-12-15T06:54:13.966Z,27.73
2022-12-15T06:56:42.758Z,28.15
2022-12-15T06:59:12.403Z,27.02
2022-12-15T07:01:41.920Z,28.45
2022-12-15T07:04:11.260Z,30.02
2022-12-15T07:06:42.484Z,30.40
2022-12-15T07:09:16.036Z,29.30
2022-12-15T07:11:45.135Z,27.83
2022-12-15T07:14:13.781Z,27.33
2022-12-15T07:16:42.594Z,26.08
2022-12-15T07:19:13.291Z,27.58
2022-12-15T07:21:43.652Z,27.00
2022-12-15T07:24:13.292Z,25.17
2022-12-15T07:26:42.750Z,26.33
2022-12-15T07:29:14.878Z,25.50
2022-12-15T07:31:46.208Z,19.77
2022-12-15T07:34:15.002Z,27.05
2022-12-15T07:36:51.562Z,27.42
2022-12-15T07:39:21.325Z,26.30
2022-12-15T07:41:50.197Z,25.98
2022-12-15T07:44:19.374Z,27.10
2022-12-15T07:46:49.138Z,27.05
2022-12-15T07:49:18.345Z,27.60
2022-12-15T07:51:48.519Z,27.90
2022-12-15T07:54:17.579Z,27.48
2022-12-15T07:56:50.176Z,27.92
2022-12-15T07:59:19.561Z,27.00
2022-12-15T08:01:49.562Z,27.65
2022-12-15T08:04:18.732Z,27.55
2022-12-15T08:06:48.721Z,28.48
2022-12-15T08:09:17.525Z,28.38
2022-12-15T08:11:46.186Z,28.70
2022-12-15T08:14:17.875Z,27.73
2022-12-15T08:16:47.426Z,27.02
2022-12-15T08:19:16.896Z,27.63
2022-12-15T08:21:47.887Z,30.50
2022-12-15T08:24:17.192Z,29.25
2022-12-15T08:26:50.109Z,28.42
2022-12-15T08:32:08.521Z,29.45
2022-12-15T08:34:37.336Z,30.95
2022-12-15T08:37:07.447Z,28.55
2022-12-15T08:39:36.143Z,29.65
2022-12-15T08:42:05.068Z,29.30
2022-12-15T08:44:33.859Z,27.48
2022-12-15T08:47:02.454Z,27.77
2022-12-15T08:49:31.297Z,28.88
2022-12-15T08:52:00.138Z,26.40
2022-12-15T08:54:30.214Z,27.42
2022-12-15T08:56:58.942Z,26.63
2022-12-15T08:59:27.921Z,26.10
2022-12-15T09:01:56.629Z,27.65
2022-12-15T09:04:25.421Z,26.58
2022-12-15T09:06:54.456Z,28.27
2022-12-15T09:09:23.459Z,27.05
2022-12-15T09:11:53.423Z,27.58
2022-12-15T09:14:28.794Z,26.92
2022-12-15T09:16:58.212Z,27.60
2022-12-15T09:19:27.077Z,26.15
2022-12-15T09:21:55.772Z,26.73
2022-12-15T09:24:32.441Z,28.33
2022-12-15T09:27:04.972Z,26.38
2022-12-15T09:29:33.870Z,28.60
2022-12-15T09:32:02.644Z,29.98
2022-12-15T09:34:31.433Z,28.05
2022-12-15T09:37:00.385Z,27.55
2022-12-15T09:39:29.166Z,26.38
2022-12-15T09:42:01.390Z,27.13
2022-12-15T09:44:32.794Z,27.05
2022-12-15T09:47:09.206Z,27.55
2022-12-15T09:49:52.383Z,25.63
2022-12-15T09:52:23.109Z,24.63
2022-12-15T09:54:52.070Z,25.55
2022-12-15T09:57:37.574Z,28.83
2022-12-15T10:03:05.262Z,24.13
2022-12-15T10:06:07.374Z,25.23
2022-12-15T10:08:31.542Z,25.63
2022-12-15T10:11:01.706Z,25.73
2022-12-15T10:13:38.122Z,27.38
2022-12-15T10:16:17.626Z,26.15
2022-12-15T10:18:59.262Z,25.50
2022-12-15T10:21:31.675Z,23.67
2022-12-15T10:24:02.849Z,25.83
2022-12-15T10:26:34.657Z,25.92
2022-12-15T10:29:20.678Z,23.90
2022-12-15T10:31:53.643Z,28.38
2022-12-15T10:34:27.540Z,25.27
2022-12-15T10:36:57.480Z,25.80
2022-12-15T10:39:38.085Z,25.67
2022-12-15T10:42:23.172Z,26.00
2022-12-15T10:44:52.897Z,23.92
2022-12-15T10:47:25.943Z,25.58
2022-12-15T10:49:55.567Z,24.60
2022-12-15T10:52:33.707Z,26.17
2022-12-15T10:55:02.831Z,25.42
2022-12-15T10:57:33.488Z,26.75
2022-12-15T11:00:27.820Z,25.85
2022-12-15T11:02:58.481Z,24.85
2022-12-15T11:05:27.892Z,25.27
2022-12-15T11:07:57.767Z,24.00
2022-12-15T11:10:48.942Z,24.40
2022-12-15T11:13:19.574Z,25.05
2022-12-15T11:15:50.922Z,23.05
2022-12-15T11:18:34.064Z,25.05
2022-12-15T11:21:06.784Z,24.33
2022-12-15T11:23:49.050Z,26.17
2022-12-15T11:26:27.901Z,24.33
2022-12-15T11:29:00.234Z,25.85
2022-12-15T11:31:35.131Z,24.15
2022-12-15T11:34:05.482Z,25.95
2022-12-15T11:37:04.325Z,25.40
2022-12-15T11:39:43.111Z,25.83
2022-12-15T11:42:16.288Z,24.42
2022-12-15T11:44:51.808Z,24.23
2022-12-15T11:47:26.387Z,26.50
2022-12-15T11:50:07.176Z,25.10
2022-12-15T11:52:54.082Z,24.35
2022-12-15T11:55:32.118Z,23.80
2022-12-15T11:58:32.143Z,23.00
2022-12-15T12:01:06.325Z,23.85
2022-12-15T12:03:41.992Z,23.08
2022-12-15T12:06:15.724Z,23.85
2022-12-15T12:09:07.366Z,24.23
2022-12-15T12:11:41.451Z,23.05
2022-12-15T12:14:20.151Z,25.30
2022-12-15T12:16:52.866Z,27.42
2022-12-15T12:19:26.234Z,24.50
2022-12-15T12:22:02.071Z,24.00
2022-12-15T12:24:33.958Z,23.17
2022-12-15T12:27:05.832Z,23.35
2022-12-15T12:29:36.668Z,23.08
2022-12-15T12:32:08.963Z,23.35
2022-12-15T12:34:51.452Z,23.33
2022-12-15T12:37:27.139Z,22.25
2022-12-15T12:40:02.020Z,24.00
2022-12-15T12:42:37.271Z,22.50
2022-12-15T12:45:07.388Z,24.73
2022-12-15T12:47:38.521Z,23.90
2022-12-15T12:50:14.671Z,22.63
2022-12-15T12:52:51.055Z,23.98
2022-12-15T12:55:36.733Z,23.58
2022-12-15T12:58:35.861Z,22.27
2022-12-15T13:01:14.479Z,24.75
2022-12-15T13:03:44.956Z,25.48
2022-12-15T13:06:44.110Z,23.70
2022-12-15T13:09:26.171Z,22.33
2022-12-15T13:12:20.933Z,24.40
2022-12-15T13:14:52.120Z,17.50
2022-12-15T13:17:29.775Z,23.05
2022-12-15T13:20:29.359Z,22.65
2022-12-15T13:23:35.126Z,22.48
2022-12-15T13:28:59.079Z,24.70
2022-12-15T13:31:35.282Z,23.17
2022-12-15T13:34:17.366Z,23.92
2022-12-15T13:36:55.138Z,22.98
2022-12-15T13:39:59.086Z,22.48
2022-12-15T13:42:36.999Z,23.75
2022-12-15T13:45:44.541Z,22.77
2022-12-15T13:48:29.426Z,22.45
2022-12-15T13:51:05.444Z,23.25
2022-12-15T13:53:43.144Z,22.98
2022-12-15T13:56:39.023Z,23.25
2022-12-15T13:59:20.581Z,22.58
2022-12-15T14:01:56.451Z,24.85
2022-12-15T14:04:26.570Z,23.45
2022-12-15T14:06:57.243Z,23.33
2022-12-15T14:09:30.486Z,21.90
2022-12-15T14:11:59.951Z,22.60
2022-12-15T14:14:33.785Z,24.27
2022-12-15T14:17:08.254Z,24.17
2022-12-15T14:19:41.792Z,22.67
2022-12-15T14:22:29.509Z,22.60
2022-12-15T14:25:03.629Z,22.58
2022-12-15T14:27:34.283Z,23.25
2022-12-15T14:30:17.095Z,23.70
2022-12-15T14:32:49.262Z,23.42
2022-12-15T14:35:24.469Z,23.17
2022-12-15T14:37:53.702Z,22.17
2022-12-15T14:40:28.461Z,22.10
2022-12-15T14:42:57.989Z,22.58
2022-12-15T14:45:29.901Z,23.10
2022-12-15T14:50:51.232Z,23.88
2022-12-15T14:53:21.759Z,22.02
2022-12-15T14:55:51.495Z,22.60
2022-12-15T14:58:38.185Z,23.25
2022-12-15T15:01:24.938Z,21.20
2022-12-15T15:04:02.807Z,21.60
2022-12-15T15:06:37.222Z,22.17
2022-12-15T15:09:18.792Z,22.38
2022-12-15T15:11:48.156Z,21.33
2022-12-15T15:14:20.032Z,23.75
2022-12-15T15:17:05.439Z,23.42
2022-12-15T15:22:21.608Z,20.60
2022-12-15T15:24:53.004Z,20.25
2022-12-15T15:27:27.843Z,21.77
2022-12-15T15:30:21.786Z,21.25
2022-12-15T15:32:55.395Z,19.00
2022-12-15T15:35:30.139Z,23.40
2022-12-15T15:38:03.756Z,22.17
2022-12-15T15:40:32.741Z,21.02
2022-12-15T15:43:01.766Z,22.75
2022-12-15T15:45:31.114Z,22.48
2022-12-15T15:47:59.830Z,20.20
2022-12-15T15:50:31.007Z,19.30
2022-12-15T15:53:00.160Z,18.35
2022-12-15T15:55:37.786Z,18.65
2022-12-15T15:58:12.614Z,17.85
2022-12-15T16:00:41.731Z,18.38
2022-12-15T16:03:10.967Z,19.98
2022-12-15T16:05:41.763Z,22.10
2022-12-15T16:08:14.976Z,17.55
2022-12-15T16:10:45.773Z,17.98
2022-12-15T16:13:16.709Z,18.38
2022-12-15T16:15:45.768Z,20.50
2022-12-15T16:18:15.055Z,17.25
2022-12-15T16:20:48.939Z,17.30
2022-12-15T16:23:20.066Z,15.93
2022-12-15T16:25:51.397Z,17.02
2022-12-15T16:28:22.102Z,16.70
2022-12-15T16:30:51.429Z,16.98
2022-12-15T16:33:20.344Z,18.55
2022-12-15T16:35:51.603Z,16.98
2022-12-15T16:38:24.296Z,17.48
2022-12-15T16:40:53.363Z,17.23
2022-12-15T16:43:29.003Z,17.80
2022-12-15T16:45:59.371Z,16.45
2022-12-15T16:48:29.468Z,17.05
2022-12-15T16:51:00.526Z,20.88
2022-12-15T16:53:30.454Z,17.60
2022-12-15T16:56:00.117Z,16.80
2022-12-15T16:58:30.371Z,16.75
2022-12-15T17:00:59.526Z,18.60
2022-12-15T17:03:28.936Z,16.60
2022-12-15T17:06:02.029Z,16.42
2022-12-15T17:08:36.448Z,17.73
2022-12-15T17:11:06.304Z,18.42
2022-12-15T17:13:42.103Z,18.77
2022-12-15T17:16:15.185Z,18.52
2022-12-15T17:18:44.685Z,18.17
2022-12-15T17:21:17.342Z,18.20
2022-12-15T17:23:47.220Z,17.17
2022-12-15T17:26:28.194Z,18.73
2022-12-15T17:28:59.514Z,17.25
2022-12-15T17:31:34.623Z,18.63
2022-12-15T17:34:08.402Z,19.50
2022-12-15T17:36:38.895Z,20.02
2022-12-15T17:39:10.397Z,19.58
2022-12-15T17:44:34.098Z,20.13
2022-12-15T17:47:04.566Z,19.00
2022-12-15T17:49:36.423Z,17.85
2022-12-15T17:52:15.226Z,18.42
2022-12-15T17:54:44.164Z,24.85
2022-12-15T17:57:13.603Z,21.10
2022-12-15T17:59:42.294Z,18.52
2022-12-15T18:02:14.049Z,18.45
2022-12-15T18:04:43.576Z,18.42
2022-12-15T18:07:19.230Z,18.23
2022-12-15T18:09:48.155Z,18.60
2022-12-15T18:12:21.274Z,18.40
2022-12-15T18:14:50.161Z,18.70
2022-12-15T18:17:19.058Z,18.52
2022-12-15T18:19:47.906Z,17.63
2022-12-15T18:22:22.020Z,17.25
2022-12-15T18:24:51.515Z,14.30
2022-12-15T18:27:23.802Z,17.55
2022-12-15T18:29:52.562Z,19.13
2022-12-15T18:32:22.887Z,19.33
2022-12-15T18:34:52.439Z,19.35
2022-12-15T18:37:24.860Z,18.55
2022-12-15T18:39:55.365Z,19.08
2022-12-15T18:42:26.039Z,19.98
2022-12-15T18:44:56.584Z,17.95
2022-12-15T18:47:26.417Z,19.70
2022-12-15T18:49:55.054Z,19.65
2022-12-15T18:52:31.422Z,19.58
2022-12-15T18:55:01.830Z,19.65
2022-12-15T18:57:32.343Z,18.90
2022-12-15T19:00:02.118Z,18.65
2022-12-15T19:02:30.994Z,21.55
2022-12-15T19:04:59.692Z,18.42
2022-12-15T19:07:29.788Z,19.25
2022-12-15T19:09:58.649Z,18.88
2022-12-15T19:12:27.512Z,19.30
2022-12-15T19:14:56.445Z,18.55
2022-12-15T19:17:43.392Z,18.05
2022-12-15T19:20:35.835Z,18.90
2022-12-15T19:23:06.452Z,18.45
2022-12-15T19:25:35.482Z,18.42
2022-12-15T19:28:06.946Z,19.70
2022-12-15T19:30:41.954Z,18.40
2022-12-15T19:33:11.832Z,18.92
2022-12-15T19:35:42.628Z,18.15
2022-12-15T19:38:24.333Z,18.17
2022-12-15T19:40:54.580Z,18.35
2022-12-15T19:43:24.610Z,18.02
2022-12-15T19:45:54.034Z,18.38
2022-12-15T19:48:24.108Z,18.67
2022-12-15T19:50:54.750Z,18.77
2022-12-15T19:53:28.539Z,17.60
2022-12-15T19:55:59.898Z,18.88
2022-12-15T19:58:30.897Z,19.17
2022-12-15T20:01:01.511Z,18.20
2022-12-15T20:03:32.089Z,19.25
2022-12-15T20:06:03.086Z,19.40
2022-12-15T20:08:36.814Z,19.73
2022-12-15T20:11:06.168Z,19.95
2022-12-15T20:13:35.671Z,19.48
2022-12-15T20:16:05.228Z,20.20
2022-12-15T20:18:34.723Z,18.17
2022-12-15T20:21:04.100Z,20.63
2022-12-15T20:23:34.923Z,19.17
2022-12-15T20:26:03.949Z,19.58
2022-12-15T20:28:32.991Z,20.50
2022-12-15T20:31:01.708Z,19.55
2022-12-15T20:33:30.873Z,19.58
2022-12-15T20:36:00.750Z,20.17
2022-12-15T20:38:31.810Z,20.30
2022-12-15T20:41:03.704Z,21.38
2022-12-15T20:43:34.756Z,18.88
2022-12-15T20:46:06.585Z,20.90
2022-12-15T20:48:36.528Z,21.90
2022-12-15T20:51:09.538Z,20.63
2022-12-15T20:53:39.795Z,20.10
2022-12-15T20:56:10.566Z,21.27
2022-12-15T20:58:39.533Z,20.17
2022-12-15T21:01:19.077Z,20.20
2022-12-15T21:03:48.458Z,21.58
2022-12-15T21:06:17.897Z,19.65
2022-12-15T21:08:46.878Z,20.75
2022-12-15T21:11:19.328Z,21.27
2022-12-15T21:13:49.925Z,20.40
2022-12-15T21:16:20.935Z,21.48
2022-12-15T21:19:19.170Z,21.33
2022-12-15T21:21:41.150Z,19.80
2022-12-15T21:24:16.341Z,20.30
2022-12-15T21:29:17.873Z,19.17
2022-12-15T21:31:47.078Z,19.80
2022-12-15T21:34:16.068Z,19.92
2022-12-15T21:36:47.876Z,19.15
2022-12-15T21:39:22.418Z,20.75
2022-12-15T21:41:52.585Z,20.35
2022-12-15T21:44:24.006Z,19.45
2022-12-15T21:46:52.783Z,19.70
2022-12-15T21:49:22.348Z,21.23
2022-12-15T21:51:53.760Z,20.08
2022-12-15T21:54:30.719Z,21.52
2022-12-15T21:57:02.887Z,18.13
2022-12-15T21:59:33.167Z,19.15
2022-12-15T22:02:02.431Z,20.40
2022-12-15T22:04:33.819Z,20.50
2022-12-15T22:07:02.643Z,19.40
2022-12-15T22:09:31.434Z,19.13
2022-12-15T22:12:02.026Z,20.05
2022-12-15T22:14:32.920Z,19.83
2022-12-15T22:17:03.175Z,20.95
2022-12-15T22:19:31.816Z,21.10
2022-12-15T22:22:00.561Z,20.15
2022-12-15T22:24:29.136Z,18.42
2022-12-15T22:26:58.347Z,20.77
2022-12-15T22:29:31.503Z,20.55
2022-12-15T22:32:00.125Z,21.33
2022-12-15T22:34:29.036Z,22.02
2022-12-15T22:36:57.687Z,22.00
2022-12-15T22:39:26.298Z,21.23
2022-12-15T22:41:55.156Z,21.83
2022-12-15T22:44:26.143Z,22.40
2022-12-15T22:46:58.009Z,22.73
2022-12-15T22:49:29.878Z,21.88
2022-12-15T22:51:58.656Z,22.00
2022-12-15T22:54:29.276Z,23.58
2022-12-15T22:57:02.013Z,22.17
2022-12-15T22:59:33.588Z,22.42
2022-12-15T23:02:04.475Z,23.27
2022-12-15T23:04:33.686Z,22.83
2022-12-15T23:07:04.995Z,24.33
2022-12-15T23:09:33.947Z,21.38
2022-12-15T23:12:01.957Z,23.15
2022-12-15T23:14:48.460Z,23.02
2022-12-15T23:17:18.692Z,22.92
2022-12-15T23:19:47.566Z,23.00
2022-12-15T23:22:16.322Z,23.45
2022-12-15T23:24:44.901Z,24.38
2022-12-15T23:27:13.634Z,23.90
2022-12-15T23:29:42.243Z,22.13
2022-12-15T23:32:10.793Z,22.92
2022-12-15T23:34:40.942Z,22.58
2022-12-15T23:37:09.494Z,23.13
2022-12-15T23:39:38.227Z,24.45
2022-12-15T23:42:07.086Z,23.15
2022-12-15T23:44:37.440Z,21.85
2022-12-15T23:47:06.578Z,22.42
2022-12-15T23:49:35.217Z,22.65
2022-12-15T23:52:05.663Z,23.83
2022-12-15T23:54:34.272Z,22.83
2022-12-15T23:57:03.317Z,23.80
2022-12-15T23:59:32.049Z,23.15
